createdAt,value
2018-08-09T00:00:26.214Z,6.40
2018-08-09T00:03:08.133Z,5.85
2018-08-09T00:05:53.095Z,6.25
2018-08-09T00:08:31.612Z,6.15
2018-08-09T00:11:01.374Z,6.03
2018-08-09T00:13:37.514Z,5.75
2018-08-09T00:16:07.607Z,6.47
2018-08-09T00:18:42.533Z,6.60
2018-08-09T00:21:11.729Z,6.95
2018-08-09T00:23:46.780Z,5.90
2018-08-09T00:26:16.223Z,5.92
2018-08-09T00:28:46.442Z,5.95
2018-08-09T00:31:16.103Z,5.85
2018-08-09T00:33:50.097Z,6.08
2018-08-09T00:36:25.182Z,6.95
2018-08-09T00:38:57.570Z,6.62
2018-08-09T00:41:32.257Z,6.78
2018-08-09T00:44:01.351Z,6.60
2018-08-09T00:46:30.738Z,6.00
2018-08-09T00:49:05.653Z,6.47
2018-08-09T00:51:34.933Z,6.55
2018-08-09T00:54:16.286Z,5.78
2018-08-09T00:56:54.274Z,5.97
2018-08-09T00:59:25.545Z,6.03
2018-08-09T01:01:54.453Z,6.33
2018-08-09T01:04:29.909Z,6.50
2018-08-09T01:07:02.678Z,6.15
2018-08-09T01:09:31.872Z,6.17
2018-08-09T01:12:00.979Z,5.80
2018-08-09T01:14:38.960Z,6.10
2018-08-09T01:17:08.929Z,6.42
2018-08-09T01:19:38.145Z,6.50
2018-08-09T01:22:08.613Z,6.20
2018-08-09T01:24:42.852Z,5.92
2018-08-09T01:27:11.967Z,6.65
2018-08-09T01:29:43.901Z,5.62
2018-08-09T01:32:18.113Z,6.28
2018-08-09T01:34:48.226Z,6.72
2018-08-09T01:37:19.921Z,5.95
2018-08-09T01:39:48.568Z,6.08
2018-08-09T01:42:32.227Z,6.83
2018-08-09T01:45:06.298Z,6.40
2018-08-09T01:47:53.770Z,6.17
2018-08-09T01:50:25.226Z,5.87
2018-08-09T01:52:59.341Z,5.97
2018-08-09T01:55:28.480Z,6.45
2018-08-09T01:58:02.550Z,6.08
2018-08-09T02:00:31.598Z,6.05
2018-08-09T02:03:05.740Z,6.15
2018-08-09T02:05:40.224Z,6.42
2018-08-09T02:08:14.673Z,6.20
2018-08-09T02:10:43.761Z,6.20
2018-08-09T02:13:12.622Z,5.72
2018-08-09T02:15:44.344Z,6.17
2018-08-09T02:18:18.468Z,5.97
2018-08-09T02:20:48.607Z,5.87
2018-08-09T02:23:20.409Z,5.90
2018-08-09T02:25:52.078Z,6.17
2018-08-09T02:28:20.990Z,6.20
2018-08-09T02:30:50.404Z,6.28
2018-08-09T02:33:24.504Z,6.40
2018-08-09T02:36:03.055Z,6.50
2018-08-09T02:38:33.406Z,6.30
2018-08-09T02:41:05.118Z,6.25
2018-08-09T02:43:33.832Z,6.22
2018-08-09T02:46:02.478Z,6.60
2018-08-09T02:48:32.214Z,6.17
2018-08-09T02:51:00.968Z,6.78
2018-08-09T02:53:42.561Z,6.75
2018-08-09T02:56:11.305Z,6.53
2018-08-09T02:58:39.917Z,6.53
2018-08-09T03:01:08.662Z,6.72
2018-08-09T03:03:40.379Z,6.05
2018-08-09T03:06:09.920Z,6.25
2018-08-09T03:08:44.050Z,6.90
2018-08-09T03:11:13.036Z,6.53
2018-08-09T03:13:42.813Z,7.10
2018-08-09T03:16:14.521Z,7.00
2018-08-09T03:18:48.616Z,7.25
2018-08-09T03:21:19.944Z,7.67
2018-08-09T03:23:48.763Z,6.72
2018-08-09T03:26:18.496Z,6.87
2018-08-09T03:28:48.259Z,6.72
2018-08-09T03:31:17.065Z,6.80
2018-08-09T03:33:45.710Z,6.85
2018-08-09T03:36:14.334Z,7.35
2018-08-09T03:38:46.048Z,7.45
2018-08-09T03:41:17.758Z,7.20
2018-08-09T03:43:46.620Z,7.50
2018-08-09T03:46:25.088Z,7.70
2018-08-09T03:48:56.337Z,7.05
2018-08-09T03:51:40.547Z,7.58
2018-08-09T03:54:21.577Z,6.97
2018-08-09T03:57:06.242Z,8.25
2018-08-09T03:59:35.067Z,8.08
2018-08-09T04:02:04.304Z,7.20
2018-08-09T04:04:36.174Z,7.83
2018-08-09T04:07:12.408Z,7.40
2018-08-09T04:09:41.455Z,7.00
2018-08-09T04:12:10.161Z,7.70
2018-08-09T04:14:38.821Z,7.17
2018-08-09T04:17:18.711Z,7.45
2018-08-09T04:19:47.642Z,7.42
2018-08-09T04:22:23.186Z,7.62
2018-08-09T04:25:03.440Z,7.37
2018-08-09T04:27:35.044Z,6.87
2018-08-09T04:30:04.502Z,7.58
2018-08-09T04:32:35.705Z,8.40
2018-08-09T04:35:04.484Z,7.90
2018-08-09T04:37:33.287Z,8.25
2018-08-09T04:40:21.120Z,8.03
2018-08-09T04:43:01.416Z,8.50
2018-08-09T04:45:32.912Z,8.20
2018-08-09T04:48:07.137Z,9.05
2018-08-09T04:50:36.369Z,8.35
2018-08-09T04:53:05.974Z,8.70
2018-08-09T04:55:37.735Z,8.18
2018-08-09T04:58:06.914Z,8.33
2018-08-09T05:00:41.574Z,8.45
2018-08-09T05:03:10.794Z,7.72
2018-08-09T05:05:39.292Z,8.88
2018-08-09T05:08:09.378Z,8.53
2018-08-09T05:10:45.049Z,9.43
2018-08-09T05:13:17.784Z,9.20
2018-08-09T05:15:46.936Z,9.35
2018-08-09T05:18:16.583Z,8.58
2018-08-09T05:20:45.166Z,8.80
2018-08-09T05:23:13.934Z,8.93
2018-08-09T05:25:45.471Z,9.18
2018-08-09T05:28:17.237Z,8.40
2018-08-09T05:30:51.361Z,8.40
2018-08-09T05:33:20.413Z,8.00
2018-08-09T05:35:52.250Z,9.38
2018-08-09T05:38:26.380Z,9.38
2018-08-09T05:41:00.984Z,9.03
2018-08-09T05:43:35.535Z,9.13
2018-08-09T05:46:15.581Z,10.25
2018-08-09T05:48:50.668Z,9.83
2018-08-09T05:51:19.813Z,10.20
2018-08-09T05:53:53.853Z,11.43
2018-08-09T05:56:25.294Z,12.20
2018-08-09T06:00:26.067Z,11.57
2018-08-09T06:02:55.323Z,11.68
2018-08-09T06:05:24.113Z,12.93
2018-08-09T06:07:53.534Z,12.45
2018-08-09T06:10:22.224Z,12.80
2018-08-09T06:15:36.343Z,13.55
2018-08-09T06:18:05.093Z,12.95
2018-08-09T06:20:34.764Z,13.45
2018-08-09T06:23:03.605Z,13.38
2018-08-09T06:25:32.189Z,13.43
2018-08-09T06:30:57.305Z,11.70
2018-08-09T06:33:26.240Z,11.90
2018-08-09T06:35:54.910Z,10.20
2018-08-09T06:38:23.508Z,9.83
2018-08-09T06:40:51.982Z,9.30
2018-08-09T06:43:21.831Z,8.30
2018-08-09T06:45:50.405Z,8.38
2018-08-09T06:48:18.896Z,7.53
2018-08-09T06:50:47.556Z,7.35
2018-08-09T06:53:19.301Z,7.92
2018-08-09T06:55:47.884Z,7.87
2018-08-09T06:58:21.861Z,7.97
2018-08-09T07:00:51.058Z,7.53
2018-08-09T07:03:26.124Z,8.05
2018-08-09T07:05:55.182Z,7.17
2018-08-09T07:08:36.142Z,7.72
2018-08-09T07:11:09.942Z,8.05
2018-08-09T07:13:38.883Z,8.28
2018-08-09T07:16:13.561Z,7.20
2018-08-09T07:18:42.172Z,6.33
2018-08-09T07:21:13.844Z,5.90
2018-08-09T07:23:42.459Z,4.92
2018-08-09T07:26:12.497Z,4.97
2018-08-09T07:28:41.734Z,4.60
2018-08-09T07:31:10.659Z,5.05
2018-08-09T07:33:39.431Z,4.33
2018-08-09T07:36:08.075Z,4.17
2018-08-09T07:38:36.661Z,4.22
2018-08-09T07:41:05.287Z,3.95
2018-08-09T07:43:33.882Z,4.55
2018-08-09T07:46:03.481Z,4.78
2018-08-09T07:48:32.235Z,4.85
2018-08-09T07:51:00.893Z,4.55
2018-08-09T07:53:29.547Z,4.60
2018-08-09T07:55:58.185Z,4.83
2018-08-09T07:58:27.223Z,5.05
2018-08-09T08:00:56.518Z,4.65
2018-08-09T08:03:25.171Z,4.55
2018-08-09T08:05:53.951Z,4.92
2018-08-09T08:08:28.077Z,4.70
2018-08-09T08:10:57.125Z,4.37
2018-08-09T08:13:26.871Z,4.03
2018-08-09T08:15:55.405Z,4.30
2018-08-09T08:18:25.155Z,4.12
2018-08-09T08:20:53.703Z,4.17
2018-08-09T08:23:22.427Z,3.40
2018-08-09T08:25:52.264Z,3.45
2018-08-09T08:28:20.971Z,3.25
2018-08-09T08:30:49.466Z,3.50
2018-08-09T08:33:18.172Z,4.30
2018-08-09T08:35:47.378Z,4.03
2018-08-09T08:38:16.613Z,3.83
2018-08-09T08:40:45.355Z,3.08
2018-08-09T08:43:13.919Z,3.42
2018-08-09T08:45:42.627Z,2.98
2018-08-09T08:48:11.282Z,2.77
2018-08-09T08:50:40.394Z,3.20
2018-08-09T08:53:09.695Z,3.80
2018-08-09T08:55:38.371Z,3.50
2018-08-09T08:58:06.968Z,4.28
2018-08-09T09:00:36.348Z,4.25
2018-08-09T09:03:05.414Z,3.60
2018-08-09T09:05:33.654Z,3.27
2018-08-09T09:08:03.252Z,3.80
2018-08-09T09:10:31.821Z,2.90
2018-08-09T09:13:01.286Z,2.70
2018-08-09T09:15:30.199Z,2.35
2018-08-09T09:17:58.822Z,1.80
2018-08-09T09:20:27.451Z,2.10
2018-08-09T09:22:56.738Z,2.37
2018-08-09T09:25:26.785Z,2.47
2018-08-09T09:27:58.494Z,2.33
2018-08-09T09:30:30.140Z,2.62
2018-08-09T09:32:59.281Z,2.87
2018-08-09T09:35:27.771Z,2.70
2018-08-09T09:37:56.440Z,3.30
2018-08-09T09:40:25.029Z,3.72
2018-08-09T09:42:53.777Z,3.27
2018-08-09T09:45:25.320Z,3.98
2018-08-09T09:47:53.929Z,3.10
2018-08-09T09:50:23.613Z,4.05
2018-08-09T09:52:52.296Z,3.90
2018-08-09T09:55:20.943Z,4.33
2018-08-09T09:57:49.509Z,3.50
2018-08-09T10:00:23.577Z,3.55
2018-08-09T10:02:53.089Z,3.08
2018-08-09T10:05:21.909Z,2.50
2018-08-09T10:07:51.318Z,2.90
2018-08-09T10:10:21.114Z,3.58
2018-08-09T10:12:50.767Z,2.92
2018-08-09T10:15:20.466Z,3.10
2018-08-09T10:17:49.150Z,3.40
2018-08-09T10:20:21.355Z,3.17
2018-08-09T10:22:49.793Z,3.10
2018-08-09T10:25:19.139Z,2.98
2018-08-09T10:27:48.338Z,2.47
2018-08-09T10:30:18.874Z,3.08
2018-08-09T10:32:47.907Z,2.98
2018-08-09T10:35:18.642Z,3.58
2018-08-09T10:37:48.322Z,3.42
2018-08-09T10:40:20.034Z,3.02
2018-08-09T10:42:49.758Z,2.80
2018-08-09T10:45:20.673Z,2.50
2018-08-09T10:47:49.957Z,2.60
2018-08-09T10:50:21.895Z,2.92
2018-08-09T10:52:50.536Z,2.45
2018-08-09T10:55:20.146Z,4.03
2018-08-09T10:57:54.352Z,4.25
2018-08-09T11:00:25.747Z,4.47
2018-08-09T11:02:57.582Z,4.62
2018-08-09T11:05:31.831Z,4.05
2018-08-09T11:08:08.425Z,3.05
2018-08-09T11:10:38.527Z,2.52
2018-08-09T11:13:07.235Z,2.40
2018-08-09T11:15:40.956Z,2.47
2018-08-09T11:18:10.112Z,2.83
2018-08-09T11:20:40.728Z,3.60
2018-08-09T11:23:09.860Z,4.08
2018-08-09T11:25:38.698Z,4.45
2018-08-09T11:28:10.351Z,5.15
2018-08-09T11:30:39.241Z,5.12
2018-08-09T11:33:08.778Z,4.40
2018-08-09T11:35:40.529Z,3.75
2018-08-09T11:38:10.593Z,3.47
2018-08-09T11:40:42.994Z,3.47
2018-08-09T11:43:11.581Z,3.27
2018-08-09T11:45:43.192Z,3.65
2018-08-09T11:48:12.759Z,4.00
2018-08-09T11:52:08.946Z,4.75
2018-08-09T11:54:37.362Z,4.65
2018-08-09T11:57:06.103Z,4.83
2018-08-09T11:59:35.754Z,5.15
2018-08-09T12:02:07.406Z,5.92
2018-08-09T12:04:36.235Z,5.22
2018-08-09T12:07:10.662Z,5.35
2018-08-09T12:09:43.604Z,5.62
2018-08-09T12:12:15.837Z,5.47
2018-08-09T12:14:47.369Z,4.70
2018-08-09T12:17:19.107Z,3.98
2018-08-09T12:19:47.890Z,4.40
2018-08-09T12:22:28.498Z,4.28
2018-08-09T12:25:09.923Z,3.52
2018-08-09T12:27:44.326Z,4.08
2018-08-09T12:30:18.834Z,3.98
2018-08-09T12:32:48.043Z,4.10
2018-08-09T12:35:20.239Z,4.30
2018-08-09T12:37:51.565Z,4.10
2018-08-09T12:40:30.081Z,4.35
2018-08-09T12:43:01.916Z,5.47
2018-08-09T12:45:30.775Z,5.03
2018-08-09T12:48:04.976Z,4.37
2018-08-09T12:50:34.418Z,5.37
2018-08-09T12:53:06.054Z,4.67
2018-08-09T12:55:34.820Z,5.40
2018-08-09T12:58:07.696Z,5.15
2018-08-09T13:00:36.453Z,5.25
2018-08-09T13:03:04.934Z,5.20
2018-08-09T13:05:33.598Z,5.75
2018-08-09T13:08:03.325Z,5.40
2018-08-09T13:10:33.759Z,5.62
2018-08-09T13:13:02.628Z,5.58
2018-08-09T13:15:31.315Z,5.67
2018-08-09T13:18:03.036Z,5.05
2018-08-09T13:20:34.027Z,5.53
2018-08-09T13:23:02.822Z,5.37
2018-08-09T13:25:32.228Z,5.45
2018-08-09T13:28:01.265Z,6.72
2018-08-09T13:30:35.367Z,6.08
2018-08-09T13:33:03.650Z,5.42
2018-08-09T13:35:33.516Z,5.90
2018-08-09T13:38:02.091Z,5.90
2018-08-09T13:40:31.858Z,5.83
2018-08-09T13:43:00.662Z,5.53
2018-08-09T13:45:39.025Z,4.92
2018-08-09T13:51:02.839Z,4.70
2018-08-09T13:53:34.609Z,5.25
2018-08-09T13:56:04.316Z,5.33
2018-08-09T13:58:38.421Z,5.20
2018-08-09T14:01:07.726Z,5.40
2018-08-09T14:03:37.710Z,5.92
2018-08-09T14:06:07.480Z,5.42
2018-08-09T14:08:36.766Z,6.25
2018-08-09T14:11:08.620Z,6.35
2018-08-09T14:13:40.322Z,7.05
2018-08-09T14:16:10.439Z,7.10
2018-08-09T14:18:38.966Z,7.15
2018-08-09T14:21:07.469Z,7.35
2018-08-09T14:23:36.199Z,7.60
2018-08-09T14:26:04.804Z,7.97
2018-08-09T14:28:33.587Z,15.72
2018-08-09T14:31:03.211Z,11.22
2018-08-09T14:33:32.928Z,8.70
2018-08-09T14:36:04.601Z,7.92
2018-08-09T14:38:38.756Z,7.87
2018-08-09T14:41:07.969Z,11.15
2018-08-09T14:43:39.733Z,11.30
2018-08-09T14:49:06.283Z,9.63
2018-08-09T14:51:43.017Z,8.90
2018-08-09T14:54:18.648Z,9.10
2018-08-09T14:56:47.018Z,8.25
2018-08-09T14:59:15.468Z,8.78
2018-08-09T15:01:44.044Z,9.30
2018-08-09T15:04:18.188Z,9.93
2018-08-09T15:06:47.384Z,8.73
2018-08-09T15:09:15.995Z,9.73
2018-08-09T15:11:59.423Z,10.05
2018-08-09T15:14:37.621Z,10.60
2018-08-09T15:17:06.862Z,10.32
2018-08-09T15:19:38.596Z,10.18
2018-08-09T15:22:09.455Z,10.03
2018-08-09T15:24:38.040Z,10.60
2018-08-09T15:27:07.049Z,11.85
2018-08-09T15:29:35.387Z,12.03
2018-08-09T15:32:03.930Z,11.85
2018-08-09T15:34:38.202Z,12.63
2018-08-09T15:37:07.249Z,11.30
2018-08-09T15:39:41.268Z,12.90
2018-08-09T15:42:15.910Z,12.43
2018-08-09T15:44:48.070Z,11.63
2018-08-09T15:47:19.700Z,9.43
2018-08-09T15:49:51.277Z,9.95
2018-08-09T15:52:25.527Z,9.40
2018-08-09T15:54:54.380Z,9.43
2018-08-09T15:57:23.161Z,9.50
2018-08-09T15:59:52.014Z,12.10
2018-08-09T16:02:27.166Z,12.68
2018-08-09T16:05:05.971Z,13.13
2018-08-09T16:07:36.051Z,12.95
2018-08-09T16:10:10.308Z,12.03
2018-08-09T16:12:45.077Z,11.48
2018-08-09T16:15:15.745Z,11.43
2018-08-09T16:17:47.054Z,11.08
2018-08-09T16:20:15.692Z,11.00
2018-08-09T16:22:45.530Z,9.53
2018-08-09T16:25:16.206Z,9.03
2018-08-09T16:27:44.939Z,9.08
2018-08-09T16:30:15.999Z,9.60
2018-08-09T16:32:44.506Z,9.25
2018-08-09T16:35:13.595Z,10.25
2018-08-09T16:37:43.428Z,9.65
2018-08-09T16:40:16.222Z,10.05
2018-08-09T16:42:46.297Z,10.15
2018-08-09T16:45:16.329Z,10.63
2018-08-09T16:47:45.181Z,11.03
2018-08-09T16:50:16.889Z,10.78
2018-08-09T16:52:47.597Z,11.85
2018-08-09T16:55:17.962Z,11.90
2018-08-09T16:57:48.140Z,12.05
2018-08-09T17:00:18.423Z,11.60
2018-08-09T17:02:47.773Z,11.22
2018-08-09T17:05:19.798Z,11.95
2018-08-09T17:07:50.040Z,11.55
2018-08-09T17:10:20.115Z,10.60
2018-08-09T17:12:49.757Z,11.70
2018-08-09T17:15:27.940Z,10.48
2018-08-09T17:17:57.679Z,11.53
2018-08-09T17:20:28.748Z,12.25
2018-08-09T17:23:01.689Z,11.53
2018-08-09T17:25:30.378Z,11.88
2018-08-09T17:27:59.952Z,11.43
2018-08-09T17:30:29.127Z,11.33
2018-08-09T17:32:58.430Z,12.20
2018-08-09T17:35:28.293Z,11.75
2018-08-09T17:37:57.302Z,11.93
2018-08-09T17:40:28.761Z,12.45
2018-08-09T17:42:58.559Z,12.43
2018-08-09T17:45:29.848Z,12.58
2018-08-09T17:47:58.431Z,12.70
2018-08-09T17:50:29.925Z,12.75
2018-08-09T17:53:05.701Z,12.58
2018-08-09T17:55:39.719Z,14.15
2018-08-09T17:58:08.888Z,14.80
2018-08-09T18:00:38.882Z,16.02
2018-08-09T18:03:08.453Z,15.98
2018-08-09T18:05:38.005Z,16.62
2018-08-09T18:08:07.593Z,16.62
2018-08-09T18:10:37.676Z,16.73
2018-08-09T18:13:06.126Z,17.30
2018-08-09T18:15:35.966Z,18.50
2018-08-09T18:18:04.386Z,17.82
2018-08-09T18:20:34.870Z,19.98
2018-08-09T18:23:04.105Z,17.92
2018-08-09T18:25:32.641Z,17.60
2018-08-09T18:28:01.240Z,20.17
2018-08-09T18:30:32.993Z,21.10
2018-08-09T18:33:04.722Z,21.27
2018-08-09T18:35:33.175Z,19.90
2018-08-09T18:38:01.892Z,20.10
2018-08-09T18:40:30.718Z,20.75
2018-08-09T18:42:59.890Z,19.87
2018-08-09T18:45:28.957Z,21.07
2018-08-09T18:47:57.492Z,19.87
2018-08-09T18:50:28.604Z,20.25
2018-08-09T18:52:59.198Z,22.25
2018-08-09T18:55:27.684Z,22.48
2018-08-09T18:57:56.572Z,18.77
2018-08-09T19:00:27.345Z,20.30
2018-08-09T19:02:56.080Z,19.92
2018-08-09T19:05:25.391Z,21.25
2018-08-09T19:07:54.826Z,20.68
2018-08-09T19:10:26.814Z,21.00
2018-08-09T19:12:56.979Z,19.50
2018-08-09T19:15:26.035Z,19.30
2018-08-09T19:17:55.130Z,20.45
2018-08-09T19:20:30.852Z,21.50
2018-08-09T19:22:59.509Z,21.12
2018-08-09T19:26:52.741Z,22.35
2018-08-09T19:29:21.788Z,7.12
2018-08-09T19:31:51.793Z,2.92
2018-08-09T19:34:23.049Z,2.70
2018-08-09T19:36:59.259Z,3.90
2018-08-09T19:39:28.667Z,3.20
2018-08-09T19:41:58.414Z,3.00
2018-08-09T19:44:27.062Z,2.90
2018-08-09T19:46:56.062Z,2.70
2018-08-09T19:49:25.812Z,2.90
2018-08-09T19:51:55.132Z,2.47
2018-08-09T19:54:30.497Z,2.83
2018-08-09T19:56:59.494Z,2.40
2018-08-09T19:59:29.176Z,2.42
2018-08-09T20:01:58.046Z,2.70
2018-08-09T20:04:26.795Z,2.67
2018-08-09T20:06:55.665Z,2.40
2018-08-09T20:09:25.524Z,2.47
2018-08-09T20:11:55.424Z,2.50
2018-08-09T20:14:23.805Z,2.80
2018-08-09T20:16:52.491Z,2.98
2018-08-09T20:19:21.084Z,3.17
2018-08-09T20:21:50.523Z,3.17
2018-08-09T20:24:19.546Z,2.83
2018-08-09T20:26:48.488Z,2.87
2018-08-09T20:29:18.156Z,2.95
2018-08-09T20:31:49.935Z,2.60
2018-08-09T20:34:18.670Z,3.10
2018-08-09T20:36:47.529Z,3.15
2018-08-09T20:39:16.007Z,3.62
2018-08-09T20:41:45.579Z,3.08
2018-08-09T20:44:15.775Z,3.70
2018-08-09T20:46:45.117Z,3.83
2018-08-09T20:49:13.809Z,3.62
2018-08-09T20:51:42.705Z,3.27
2018-08-09T20:54:11.332Z,3.37
2018-08-09T20:56:41.145Z,3.22
2018-08-09T20:59:09.810Z,2.83
2018-08-09T21:01:38.560Z,2.47
2018-08-09T21:04:08.773Z,2.83
2018-08-09T21:06:38.858Z,2.42
2018-08-09T21:09:10.572Z,2.47
2018-08-09T21:11:39.448Z,2.85
2018-08-09T21:14:08.063Z,2.60
2018-08-09T21:16:36.822Z,2.40
2018-08-09T21:19:05.548Z,2.70
2018-08-09T21:21:35.116Z,2.17
2018-08-09T21:24:03.804Z,3.10
2018-08-09T21:26:34.108Z,3.52
2018-08-09T21:29:03.097Z,3.08
2018-08-09T21:31:32.808Z,2.95
2018-08-09T21:34:02.421Z,2.52
2018-08-09T21:36:32.201Z,2.42
2018-08-09T21:39:02.154Z,2.98
2018-08-09T21:41:30.938Z,2.95
2018-08-09T21:43:59.588Z,2.60
2018-08-09T21:46:28.597Z,2.90
2018-08-09T21:48:56.984Z,2.30
2018-08-09T21:51:25.505Z,2.47
2018-08-09T21:53:54.190Z,2.17
2018-08-09T21:56:28.604Z,1.90
2018-08-09T21:58:57.593Z,2.17
2018-08-09T22:01:26.253Z,2.35
2018-08-09T22:03:55.881Z,1.90
2018-08-09T22:06:31.329Z,2.25
2018-08-09T22:09:14.152Z,2.55
2018-08-09T22:11:48.258Z,2.47
2018-08-09T22:14:22.808Z,2.33
2018-08-09T22:17:13.086Z,2.25
2018-08-09T22:19:49.979Z,2.72
2018-08-09T22:22:31.201Z,2.77
2018-08-09T22:25:06.553Z,3.05
2018-08-09T22:27:35.728Z,2.67
2018-08-09T22:30:06.266Z,2.83
2018-08-09T22:32:36.013Z,2.10
2018-08-09T22:35:05.449Z,2.17
2018-08-09T22:37:33.809Z,2.70
2018-08-09T22:40:08.081Z,1.90
2018-08-09T22:42:37.105Z,1.92
2018-08-09T22:45:18.951Z,2.17
2018-08-09T22:47:53.437Z,2.08
2018-08-09T22:50:25.083Z,2.40
2018-08-09T22:53:01.432Z,2.52
2018-08-09T22:55:31.165Z,2.42
2018-08-09T22:58:00.273Z,2.17
2018-08-09T23:00:29.252Z,2.67
2018-08-09T23:02:57.702Z,2.47
2018-08-09T23:05:27.442Z,2.25
2018-08-09T23:07:57.648Z,2.60
2018-08-09T23:10:26.754Z,2.22
2018-08-09T23:12:55.729Z,2.47
2018-08-09T23:15:27.918Z,2.05
2018-08-09T23:17:57.220Z,2.65
2018-08-09T23:20:31.241Z,2.65
2018-08-09T23:23:02.597Z,2.12
2018-08-09T23:25:32.166Z,2.45
2018-08-09T23:28:07.831Z,2.30
2018-08-09T23:30:37.527Z,2.00
2018-08-09T23:33:09.385Z,2.17
2018-08-09T23:35:38.188Z,1.87
2018-08-09T23:38:12.255Z,1.75
2018-08-09T23:40:41.400Z,2.62
2018-08-09T23:43:10.910Z,2.10
2018-08-09T23:45:41.745Z,2.42
2018-08-09T23:48:12.572Z,1.72
2018-08-09T23:50:40.955Z,2.15
2018-08-09T23:53:10.717Z,1.98
2018-08-09T23:55:40.272Z,1.50
2018-08-09T23:58:09.078Z,1.50
